sensor_id;sensor_type;location;lat;lon;timestamp;P1;durP1;ratioP1;P2;durP2;ratioP2
28245;SDS011;15510;52.512;13.300;2023-02-28T00:00:33;6.67;;;3.33;;
28245;SDS011;15510;52.512;13.300;2023-02-28T00:03:01;4.80;;;3.27;;
28245;SDS011;15510;52.512;13.300;2023-02-28T00:05:27;5.00;;;3.07;;
28245;SDS011;15510;52.512;13.300;2023-02-28T00:07:53;6.53;;;3.40;;
28245;SDS011;15510;52.512;13.300;2023-02-28T00:10:24;5.00;;;3.33;;
28245;SDS011;15510;52.512;13.300;2023-02-28T00:12:53;6.00;;;2.83;;
28245;SDS011;15510;52.512;13.300;2023-02-28T00:15:22;5.87;;;2.93;;
28245;SDS011;15510;52.512;13.300;2023-02-28T00:17:48;4.63;;;3.17;;
28245;SDS011;15510;52.512;13.300;2023-02-28T00:20:14;4.93;;;2.70;;
28245;SDS011;15510;52.512;13.300;2023-02-28T00:22:44;6.40;;;2.90;;
28245;SDS011;15510;52.512;13.300;2023-02-28T00:25:13;5.80;;;2.70;;
28245;SDS011;15510;52.512;13.300;2023-02-28T00:27:40;6.70;;;2.87;;
28245;SDS011;15510;52.512;13.300;2023-02-28T00:30:09;4.67;;;2.97;;
28245;SDS011;15510;52.512;13.300;2023-02-28T00:32:37;4.63;;;2.57;;
28245;SDS011;15510;52.512;13.300;2023-02-28T00:35:03;6.17;;;3.00;;
28245;SDS011;15510;52.512;13.300;2023-02-28T00:37:30;7.07;;;2.90;;
28245;SDS011;15510;52.512;13.300;2023-02-28T00:39:56;7.23;;;2.80;;
28245;SDS011;15510;52.512;13.300;2023-02-28T00:42:21;3.70;;;2.60;;
28245;SDS011;15510;52.512;13.300;2023-02-28T00:44:47;5.67;;;3.23;;
28245;SDS011;15510;52.512;13.300;2023-02-28T00:47:13;4.47;;;2.70;;
28245;SDS011;15510;52.512;13.300;2023-02-28T00:49:39;5.07;;;2.90;;
28245;SDS011;15510;52.512;13.300;2023-02-28T00:52:05;7.27;;;3.37;;
28245;SDS011;15510;52.512;13.300;2023-02-28T00:54:30;5.53;;;3.47;;
28245;SDS011;15510;52.512;13.300;2023-02-28T00:56:56;6.40;;;3.47;;
28245;SDS011;15510;52.512;13.300;2023-02-28T00:59:24;4.93;;;2.90;;
28245;SDS011;15510;52.512;13.300;2023-02-28T01:01:49;4.47;;;2.97;;
28245;SDS011;15510;52.512;13.300;2023-02-28T01:04:15;4.50;;;3.00;;
28245;SDS011;15510;52.512;13.300;2023-02-28T01:06:41;4.77;;;3.23;;
28245;SDS011;15510;52.512;13.300;2023-02-28T01:09:10;5.57;;;3.00;;
28245;SDS011;15510;52.512;13.300;2023-02-28T01:11:36;5.50;;;3.33;;
28245;SDS011;15510;52.512;13.300;2023-02-28T01:14:03;6.90;;;3.07;;
28245;SDS011;15510;52.512;13.300;2023-02-28T01:16:29;6.37;;;3.50;;
28245;SDS011;15510;52.512;13.300;2023-02-28T01:18:55;4.67;;;3.23;;
28245;SDS011;15510;52.512;13.300;2023-02-28T01:21:21;5.87;;;3.30;;
28245;SDS011;15510;52.512;13.300;2023-02-28T01:23:48;6.70;;;3.33;;
28245;SDS011;15510;52.512;13.300;2023-02-28T01:26:15;8.50;;;3.43;;
28245;SDS011;15510;52.512;13.300;2023-02-28T01:28:43;6.87;;;3.53;;
28245;SDS011;15510;52.512;13.300;2023-02-28T01:31:09;5.67;;;3.60;;
28245;SDS011;15510;52.512;13.300;2023-02-28T01:33:36;3.93;;;2.93;;
28245;SDS011;15510;52.512;13.300;2023-02-28T01:36:04;4.93;;;3.03;;
28245;SDS011;15510;52.512;13.300;2023-02-28T01:38:31;6.50;;;3.43;;
28245;SDS011;15510;52.512;13.300;2023-02-28T01:40:59;5.40;;;2.93;;
28245;SDS011;15510;52.512;13.300;2023-02-28T01:43:30;4.23;;;2.80;;
28245;SDS011;15510;52.512;13.300;2023-02-28T01:45:58;4.37;;;3.10;;
28245;SDS011;15510;52.512;13.300;2023-02-28T01:48:25;5.53;;;3.30;;
28245;SDS011;15510;52.512;13.300;2023-02-28T01:50:53;6.40;;;3.60;;
28245;SDS011;15510;52.512;13.300;2023-02-28T01:53:24;5.77;;;3.17;;
28245;SDS011;15510;52.512;13.300;2023-02-28T01:55:57;4.17;;;3.20;;
28245;SDS011;15510;52.512;13.300;2023-02-28T01:58:23;5.07;;;3.23;;
28245;SDS011;15510;52.512;13.300;2023-02-28T02:00:49;4.00;;;3.40;;
28245;SDS011;15510;52.512;13.300;2023-02-28T02:03:16;6.13;;;3.27;;
28245;SDS011;15510;52.512;13.300;2023-02-28T02:05:45;4.43;;;3.17;;
28245;SDS011;15510;52.512;13.300;2023-02-28T02:08:19;5.70;;;3.37;;
28245;SDS011;15510;52.512;13.300;2023-02-28T02:10:57;5.43;;;3.40;;
28245;SDS011;15510;52.512;13.300;2023-02-28T02:13:40;4.90;;;2.90;;
28245;SDS011;15510;52.512;13.300;2023-02-28T02:48:59;6.33;;;3.90;;
28245;SDS011;15510;52.512;13.300;2023-02-28T02:51:29;4.43;;;3.33;;
28245;SDS011;15510;52.512;13.300;2023-02-28T02:56:45;5.53;;;3.97;;
28245;SDS011;15510;52.512;13.300;2023-02-28T02:59:13;5.13;;;3.73;;
28245;SDS011;15510;52.512;13.300;2023-02-28T03:01:52;7.20;;;3.20;;
28245;SDS011;15510;52.512;13.300;2023-02-28T03:04:22;9.87;;;4.10;;
28245;SDS011;15510;52.512;13.300;2023-02-28T03:06:50;6.37;;;3.93;;
28245;SDS011;15510;52.512;13.300;2023-02-28T03:09:23;6.93;;;3.87;;
28245;SDS011;15510;52.512;13.300;2023-02-28T03:11:50;6.07;;;3.67;;
28245;SDS011;15510;52.512;13.300;2023-02-28T03:14:25;3.90;;;3.17;;
28245;SDS011;15510;52.512;13.300;2023-02-28T03:19:51;4.73;;;3.10;;
28245;SDS011;15510;52.512;13.300;2023-02-28T03:22:30;5.97;;;3.30;;
28245;SDS011;15510;52.512;13.300;2023-02-28T03:27:45;5.07;;;3.70;;
28245;SDS011;15510;52.512;13.300;2023-02-28T03:30:47;4.90;;;3.63;;
28245;SDS011;15510;52.512;13.300;2023-02-28T03:33:22;6.43;;;4.47;;
28245;SDS011;15510;52.512;13.300;2023-02-28T03:35:55;6.03;;;3.93;;
28245;SDS011;15510;52.512;13.300;2023-02-28T03:38:38;6.40;;;4.10;;
28245;SDS011;15510;52.512;13.300;2023-02-28T03:41:09;8.17;;;4.77;;
28245;SDS011;15510;52.512;13.300;2023-02-28T03:43:41;7.87;;;3.43;;
28245;SDS011;15510;52.512;13.300;2023-02-28T03:46:12;5.80;;;3.97;;
28245;SDS011;15510;52.512;13.300;2023-02-28T03:51:07;5.67;;;3.70;;
28245;SDS011;15510;52.512;13.300;2023-02-28T03:53:36;8.57;;;4.03;;
28245;SDS011;15510;52.512;13.300;2023-02-28T04:01:41;8.87;;;4.13;;
28245;SDS011;15510;52.512;13.300;2023-02-28T04:04:11;5.20;;;3.77;;
28245;SDS011;15510;52.512;13.300;2023-02-28T04:06:39;4.67;;;3.43;;
28245;SDS011;15510;52.512;13.300;2023-02-28T04:09:07;5.30;;;4.17;;
28245;SDS011;15510;52.512;13.300;2023-02-28T04:11:35;7.27;;;4.40;;
28245;SDS011;15510;52.512;13.300;2023-02-28T04:14:06;5.80;;;4.13;;
28245;SDS011;15510;52.512;13.300;2023-02-28T04:16:34;9.47;;;4.43;;
28245;SDS011;15510;52.512;13.300;2023-02-28T04:19:02;7.27;;;4.30;;
28245;SDS011;15510;52.512;13.300;2023-02-28T04:21:43;7.83;;;3.70;;
28245;SDS011;15510;52.512;13.300;2023-02-28T04:24:11;11.10;;;4.50;;
28245;SDS011;15510;52.512;13.300;2023-02-28T04:26:42;6.97;;;4.10;;
28245;SDS011;15510;52.512;13.300;2023-02-28T04:29:11;6.13;;;4.10;;
28245;SDS011;15510;52.512;13.300;2023-02-28T04:31:38;6.77;;;3.53;;
28245;SDS011;15510;52.512;13.300;2023-02-28T04:34:04;9.30;;;3.90;;
28245;SDS011;15510;52.512;13.300;2023-02-28T04:36:30;6.13;;;4.40;;
28245;SDS011;15510;52.512;13.300;2023-02-28T04:38:56;7.37;;;4.57;;
28245;SDS011;15510;52.512;13.300;2023-02-28T04:41:22;7.00;;;4.47;;
28245;SDS011;15510;52.512;13.300;2023-02-28T04:43:48;7.57;;;4.50;;
28245;SDS011;15510;52.512;13.300;2023-02-28T04:46:16;6.53;;;4.30;;
28245;SDS011;15510;52.512;13.300;2023-02-28T04:48:43;5.83;;;4.33;;
28245;SDS011;15510;52.512;13.300;2023-02-28T04:51:10;7.13;;;4.40;;
28245;SDS011;15510;52.512;13.300;2023-02-28T04:53:38;8.60;;;4.77;;
28245;SDS011;15510;52.512;13.300;2023-02-28T04:56:06;9.33;;;4.43;;
28245;SDS011;15510;52.512;13.300;2023-02-28T04:58:33;8.77;;;3.63;;
28245;SDS011;15510;52.512;13.300;2023-02-28T05:01:07;7.57;;;4.13;;
28245;SDS011;15510;52.512;13.300;2023-02-28T05:03:44;6.10;;;4.30;;
28245;SDS011;15510;52.512;13.300;2023-02-28T05:06:11;7.00;;;4.40;;
28245;SDS011;15510;52.512;13.300;2023-02-28T05:08:37;7.87;;;5.13;;
28245;SDS011;15510;52.512;13.300;2023-02-28T05:11:05;8.70;;;4.07;;
28245;SDS011;15510;52.512;13.300;2023-02-28T05:13:37;12.10;;;4.17;;
28245;SDS011;15510;52.512;13.300;2023-02-28T05:16:02;6.03;;;4.10;;
28245;SDS011;15510;52.512;13.300;2023-02-28T05:18:28;6.53;;;3.60;;
28245;SDS011;15510;52.512;13.300;2023-02-28T05:20:54;9.53;;;4.33;;
28245;SDS011;15510;52.512;13.300;2023-02-28T05:23:19;8.97;;;4.47;;
28245;SDS011;15510;52.512;13.300;2023-02-28T05:25:47;5.63;;;4.40;;
28245;SDS011;15510;52.512;13.300;2023-02-28T05:28:13;10.87;;;4.50;;
28245;SDS011;15510;52.512;13.300;2023-02-28T05:30:39;8.17;;;4.37;;
28245;SDS011;15510;52.512;13.300;2023-02-28T05:33:05;9.07;;;4.73;;
28245;SDS011;15510;52.512;13.300;2023-02-28T05:35:31;8.80;;;4.40;;
28245;SDS011;15510;52.512;13.300;2023-02-28T05:37:57;7.90;;;4.37;;
28245;SDS011;15510;52.512;13.300;2023-02-28T05:40:22;7.30;;;5.10;;
28245;SDS011;15510;52.512;13.300;2023-02-28T05:42:50;10.07;;;5.40;;
28245;SDS011;15510;52.512;13.300;2023-02-28T05:45:16;8.77;;;5.10;;
28245;SDS011;15510;52.512;13.300;2023-02-28T05:47:42;9.73;;;5.93;;
28245;SDS011;15510;52.512;13.300;2023-02-28T05:50:08;10.77;;;6.23;;
28245;SDS011;15510;52.512;13.300;2023-02-28T05:52:35;8.87;;;5.20;;
28245;SDS011;15510;52.512;13.300;2023-02-28T05:55:02;7.73;;;4.50;;
28245;SDS011;15510;52.512;13.300;2023-02-28T05:57:29;9.47;;;5.53;;
28245;SDS011;15510;52.512;13.300;2023-02-28T05:59:54;9.87;;;5.40;;
28245;SDS011;15510;52.512;13.300;2023-02-28T06:02:20;11.83;;;5.13;;
28245;SDS011;15510;52.512;13.300;2023-02-28T06:04:46;9.83;;;4.90;;
28245;SDS011;15510;52.512;13.300;2023-02-28T06:07:11;8.60;;;4.80;;
28245;SDS011;15510;52.512;13.300;2023-02-28T06:09:37;9.20;;;4.90;;
28245;SDS011;15510;52.512;13.300;2023-02-28T06:12:04;7.87;;;4.80;;
28245;SDS011;15510;52.512;13.300;2023-02-28T06:14:32;11.17;;;5.60;;
28245;SDS011;15510;52.512;13.300;2023-02-28T06:16:59;10.70;;;5.60;;
28245;SDS011;15510;52.512;13.300;2023-02-28T06:19:25;10.80;;;4.93;;
28245;SDS011;15510;52.512;13.300;2023-02-28T06:21:52;8.97;;;5.50;;
28245;SDS011;15510;52.512;13.300;2023-02-28T06:24:19;7.73;;;4.77;;
28245;SDS011;15510;52.512;13.300;2023-02-28T06:26:45;13.67;;;5.30;;
28245;SDS011;15510;52.512;13.300;2023-02-28T06:29:11;10.33;;;5.60;;
28245;SDS011;15510;52.512;13.300;2023-02-28T06:31:37;10.33;;;5.50;;
28245;SDS011;15510;52.512;13.300;2023-02-28T06:34:04;11.30;;;5.53;;
28245;SDS011;15510;52.512;13.300;2023-02-28T06:36:30;12.47;;;5.50;;
28245;SDS011;15510;52.512;13.300;2023-02-28T06:38:56;13.53;;;6.10;;
28245;SDS011;15510;52.512;13.300;2023-02-28T06:41:25;11.23;;;6.20;;
28245;SDS011;15510;52.512;13.300;2023-02-28T06:43:52;9.63;;;5.97;;
28245;SDS011;15510;52.512;13.300;2023-02-28T06:46:18;11.27;;;6.53;;
28245;SDS011;15510;52.512;13.300;2023-02-28T06:48:44;12.77;;;6.50;;
28245;SDS011;15510;52.512;13.300;2023-02-28T06:51:13;9.83;;;5.97;;
28245;SDS011;15510;52.512;13.300;2023-02-28T06:53:46;12.07;;;7.20;;
28245;SDS011;15510;52.512;13.300;2023-02-28T06:56:13;11.40;;;6.27;;
28245;SDS011;15510;52.512;13.300;2023-02-28T06:58:40;11.63;;;5.47;;
28245;SDS011;15510;52.512;13.300;2023-02-28T07:01:07;12.90;;;6.87;;
28245;SDS011;15510;52.512;13.300;2023-02-28T07:03:34;12.13;;;5.93;;
28245;SDS011;15510;52.512;13.300;2023-02-28T07:06:00;12.07;;;5.90;;
28245;SDS011;15510;52.512;13.300;2023-02-28T07:08:26;11.37;;;6.63;;
28245;SDS011;15510;52.512;13.300;2023-02-28T07:10:53;10.90;;;6.00;;
28245;SDS011;15510;52.512;13.300;2023-02-28T07:13:19;13.10;;;6.67;;
28245;SDS011;15510;52.512;13.300;2023-02-28T07:15:52;12.47;;;5.83;;
28245;SDS011;15510;52.512;13.300;2023-02-28T07:18:18;10.17;;;6.30;;
28245;SDS011;15510;52.512;13.300;2023-02-28T07:20:44;10.90;;;6.70;;
28245;SDS011;15510;52.512;13.300;2023-02-28T07:23:10;12.20;;;6.43;;
28245;SDS011;15510;52.512;13.300;2023-02-28T07:25:36;11.57;;;7.07;;
28245;SDS011;15510;52.512;13.300;2023-02-28T07:28:01;12.67;;;7.07;;
28245;SDS011;15510;52.512;13.300;2023-02-28T07:30:27;13.87;;;7.00;;
28245;SDS011;15510;52.512;13.300;2023-02-28T07:32:53;12.70;;;7.67;;
28245;SDS011;15510;52.512;13.300;2023-02-28T07:35:21;14.27;;;8.33;;
28245;SDS011;15510;52.512;13.300;2023-02-28T07:37:47;17.20;;;7.57;;
28245;SDS011;15510;52.512;13.300;2023-02-28T07:40:13;12.97;;;7.10;;
28245;SDS011;15510;52.512;13.300;2023-02-28T07:42:40;10.43;;;7.27;;
28245;SDS011;15510;52.512;13.300;2023-02-28T07:45:08;12.97;;;7.20;;
28245;SDS011;15510;52.512;13.300;2023-02-28T07:47:37;12.17;;;7.93;;
28245;SDS011;15510;52.512;13.300;2023-02-28T07:50:04;20.13;;;7.50;;
28245;SDS011;15510;52.512;13.300;2023-02-28T07:52:30;13.03;;;7.50;;
28245;SDS011;15510;52.512;13.300;2023-02-28T07:54:57;15.00;;;8.00;;
28245;SDS011;15510;52.512;13.300;2023-02-28T07:57:22;11.13;;;7.33;;
28245;SDS011;15510;52.512;13.300;2023-02-28T07:59:48;13.37;;;7.33;;
28245;SDS011;15510;52.512;13.300;2023-02-28T08:02:14;12.57;;;7.23;;
28245;SDS011;15510;52.512;13.300;2023-02-28T08:04:42;13.73;;;7.57;;
28245;SDS011;15510;52.512;13.300;2023-02-28T08:07:08;12.70;;;7.40;;
28245;SDS011;15510;52.512;13.300;2023-02-28T08:09:34;12.10;;;6.03;;
28245;SDS011;15510;52.512;13.300;2023-02-28T08:12:00;9.60;;;5.90;;
28245;SDS011;15510;52.512;13.300;2023-02-28T08:14:26;8.00;;;3.57;;
28245;SDS011;15510;52.512;13.300;2023-02-28T08:16:52;4.23;;;2.67;;
28245;SDS011;15510;52.512;13.300;2023-02-28T08:19:17;4.03;;;2.00;;
28245;SDS011;15510;52.512;13.300;2023-02-28T08:21:43;3.20;;;2.20;;
28245;SDS011;15510;52.512;13.300;2023-02-28T08:24:09;6.23;;;4.17;;
28245;SDS011;15510;52.512;13.300;2023-02-28T08:26:35;9.07;;;3.90;;
28245;SDS011;15510;52.512;13.300;2023-02-28T08:29:00;11.47;;;3.03;;
28245;SDS011;15510;52.512;13.300;2023-02-28T08:31:26;3.80;;;1.93;;
28245;SDS011;15510;52.512;13.300;2023-02-28T08:33:52;5.20;;;1.97;;
28245;SDS011;15510;52.512;13.300;2023-02-28T08:36:25;3.57;;;1.87;;
28245;SDS011;15510;52.512;13.300;2023-02-28T08:38:56;2.80;;;1.70;;
28245;SDS011;15510;52.512;13.300;2023-02-28T08:41:24;8.13;;;2.50;;
28245;SDS011;15510;52.512;13.300;2023-02-28T08:43:51;5.33;;;2.63;;
28245;SDS011;15510;52.512;13.300;2023-02-28T08:46:18;7.67;;;1.87;;
28245;SDS011;15510;52.512;13.300;2023-02-28T08:48:51;4.53;;;2.73;;
28245;SDS011;15510;52.512;13.300;2023-02-28T08:51:18;5.20;;;2.13;;
28245;SDS011;15510;52.512;13.300;2023-02-28T08:53:51;3.50;;;1.97;;
28245;SDS011;15510;52.512;13.300;2023-02-28T08:56:33;2.93;;;1.80;;
28245;SDS011;15510;52.512;13.300;2023-02-28T08:58:59;4.33;;;2.37;;
28245;SDS011;15510;52.512;13.300;2023-02-28T09:01:26;8.73;;;2.47;;
28245;SDS011;15510;52.512;13.300;2023-02-28T09:03:53;5.47;;;1.80;;
28245;SDS011;15510;52.512;13.300;2023-02-28T09:06:22;4.10;;;1.20;;
28245;SDS011;15510;52.512;13.300;2023-02-28T09:08:53;2.27;;;1.50;;
28245;SDS011;15510;52.512;13.300;2023-02-28T09:14:14;6.23;;;1.63;;
28245;SDS011;15510;52.512;13.300;2023-02-28T09:16:42;10.20;;;1.97;;
28245;SDS011;15510;52.512;13.300;2023-02-28T09:19:10;4.83;;;2.00;;
28245;SDS011;15510;52.512;13.300;2023-02-28T09:21:37;5.23;;;2.33;;
28245;SDS011;15510;52.512;13.300;2023-02-28T09:24:02;7.60;;;2.20;;
28245;SDS011;15510;52.512;13.300;2023-02-28T09:26:28;2.43;;;1.90;;
28245;SDS011;15510;52.512;13.300;2023-02-28T09:28:54;4.87;;;1.97;;
28245;SDS011;15510;52.512;13.300;2023-02-28T09:31:25;2.97;;;1.83;;
28245;SDS011;15510;52.512;13.300;2023-02-28T09:33:54;1.83;;;1.53;;
28245;SDS011;15510;52.512;13.300;2023-02-28T09:36:22;3.77;;;1.70;;
28245;SDS011;15510;52.512;13.300;2023-02-28T09:38:49;4.27;;;2.13;;
28245;SDS011;15510;52.512;13.300;2023-02-28T09:41:23;2.37;;;1.50;;
28245;SDS011;15510;52.512;13.300;2023-02-28T09:43:55;5.40;;;1.67;;
28245;SDS011;15510;52.512;13.300;2023-02-28T09:48:52;1.93;;;1.40;;
28245;SDS011;15510;52.512;13.300;2023-02-28T09:51:33;3.07;;;1.67;;
28245;SDS011;15510;52.512;13.300;2023-02-28T09:54:10;3.27;;;1.90;;
28245;SDS011;15510;52.512;13.300;2023-02-28T09:56:44;5.23;;;1.97;;
28245;SDS011;15510;52.512;13.300;2023-02-28T10:05:24;2.20;;;1.70;;
28245;SDS011;15510;52.512;13.300;2023-02-28T10:10:32;3.67;;;1.60;;
28245;SDS011;15510;52.512;13.300;2023-02-28T10:13:06;2.10;;;1.57;;
28245;SDS011;15510;52.512;13.300;2023-02-28T10:15:37;2.87;;;1.70;;
28245;SDS011;15510;52.512;13.300;2023-02-28T10:18:04;2.97;;;1.97;;
28245;SDS011;15510;52.512;13.300;2023-02-28T10:20:35;8.63;;;2.30;;
28245;SDS011;15510;52.512;13.300;2023-02-28T10:23:09;2.63;;;1.47;;
28245;SDS011;15510;52.512;13.300;2023-02-28T10:25:44;3.63;;;1.70;;
28245;SDS011;15510;52.512;13.300;2023-02-28T10:28:17;2.30;;;2.10;;
28245;SDS011;15510;52.512;13.300;2023-02-28T10:30:46;6.87;;;2.60;;
28245;SDS011;15510;52.512;13.300;2023-02-28T10:33:16;2.37;;;1.87;;
28245;SDS011;15510;52.512;13.300;2023-02-28T10:35:44;2.80;;;2.00;;
28245;SDS011;15510;52.512;13.300;2023-02-28T10:38:15;4.27;;;2.33;;
28245;SDS011;15510;52.512;13.300;2023-02-28T10:40:43;3.40;;;1.97;;
28245;SDS011;15510;52.512;13.300;2023-02-28T10:45:38;4.40;;;2.30;;
28245;SDS011;15510;52.512;13.300;2023-02-28T10:53:22;7.10;;;2.00;;
28245;SDS011;15510;52.512;13.300;2023-02-28T10:58:50;4.80;;;1.80;;
28245;SDS011;15510;52.512;13.300;2023-02-28T11:03:57;3.47;;;2.10;;
28245;SDS011;15510;52.512;13.300;2023-02-28T11:06:25;5.53;;;1.93;;
28245;SDS011;15510;52.512;13.300;2023-02-28T11:08:55;3.80;;;2.47;;
28245;SDS011;15510;52.512;13.300;2023-02-28T11:11:24;6.43;;;2.30;;
28245;SDS011;15510;52.512;13.300;2023-02-28T11:13:53;24.20;;;14.40;;
28245;SDS011;15510;52.512;13.300;2023-02-28T11:16:22;5.03;;;2.43;;
28245;SDS011;15510;52.512;13.300;2023-02-28T11:19:00;2.87;;;1.80;;
28245;SDS011;15510;52.512;13.300;2023-02-28T11:21:32;2.17;;;1.60;;
28245;SDS011;15510;52.512;13.300;2023-02-28T11:26:49;1.77;;;1.60;;
28245;SDS011;15510;52.512;13.300;2023-02-28T11:34:36;4.70;;;2.15;;
28245;SDS011;15510;52.512;13.300;2023-02-28T11:37:08;6.47;;;3.00;;
28245;SDS011;15510;52.512;13.300;2023-02-28T11:39:40;5.05;;;1.77;;
28245;SDS011;15510;52.512;13.300;2023-02-28T11:45:11;7.35;;;4.35;;
28245;SDS011;15510;52.512;13.300;2023-02-28T11:48:12;4.95;;;2.25;;
28245;SDS011;15510;52.512;13.300;2023-02-28T11:50:50;4.10;;;2.30;;
28245;SDS011;15510;52.512;13.300;2023-02-28T11:56:31;2.75;;;1.63;;
28245;SDS011;15510;52.512;13.300;2023-02-28T11:59:27;6.70;;;3.40;;
28245;SDS011;15510;52.512;13.300;2023-02-28T12:02:30;3.65;;;1.73;;
28245;SDS011;15510;52.512;13.300;2023-02-28T12:05:10;3.85;;;2.00;;
28245;SDS011;15510;52.512;13.300;2023-02-28T12:10:26;4.60;;;3.10;;
28245;SDS011;15510;52.512;13.300;2023-02-28T12:23:41;3.07;;;2.00;;
28245;SDS011;15510;52.512;13.300;2023-02-28T12:31:49;11.33;;;7.43;;
28245;SDS011;15510;52.512;13.300;2023-02-28T12:34:24;26.17;;;16.27;;
28245;SDS011;15510;52.512;13.300;2023-02-28T12:36:53;4.43;;;2.70;;
28245;SDS011;15510;52.512;13.300;2023-02-28T12:39:26;3.00;;;2.40;;
28245;SDS011;15510;52.512;13.300;2023-02-28T12:41:59;2.83;;;2.33;;
28245;SDS011;15510;52.512;13.300;2023-02-28T12:47:23;5.67;;;2.33;;
28245;SDS011;15510;52.512;13.300;2023-02-28T12:49:50;4.33;;;2.83;;
28245;SDS011;15510;52.512;13.300;2023-02-28T13:01:12;4.25;;;2.47;;
28245;SDS011;15510;52.512;13.300;2023-02-28T13:09:29;4.65;;;2.42;;
28245;SDS011;15510;52.512;13.300;2023-02-28T13:11:55;4.55;;;2.40;;
28245;SDS011;15510;52.512;13.300;2023-02-28T13:19:37;3.30;;;2.40;;
28245;SDS011;15510;52.512;13.300;2023-02-28T13:22:09;3.50;;;2.65;;
28245;SDS011;15510;52.512;13.300;2023-02-28T13:24:48;3.65;;;2.28;;
28245;SDS011;15510;52.512;13.300;2023-02-28T13:27:35;5.85;;;2.40;;
28245;SDS011;15510;52.512;13.300;2023-02-28T13:38:52;4.17;;;2.63;;
28245;SDS011;15510;52.512;13.300;2023-02-28T13:49:49;6.37;;;3.23;;
28245;SDS011;15510;52.512;13.300;2023-02-28T13:52:17;4.37;;;2.37;;
28245;SDS011;15510;52.512;13.300;2023-02-28T14:00:28;4.10;;;2.50;;
28245;SDS011;15510;52.512;13.300;2023-02-28T14:05:47;5.33;;;2.60;;
28245;SDS011;15510;52.512;13.300;2023-02-28T14:08:34;2.77;;;2.17;;
28245;SDS011;15510;52.512;13.300;2023-02-28T14:11:05;3.60;;;2.60;;
28245;SDS011;15510;52.512;13.300;2023-02-28T14:13:43;4.20;;;2.87;;
28245;SDS011;15510;52.512;13.300;2023-02-28T14:16:16;6.47;;;2.50;;
28245;SDS011;15510;52.512;13.300;2023-02-28T14:18:50;3.97;;;2.67;;
28245;SDS011;15510;52.512;13.300;2023-02-28T14:21:22;3.47;;;2.30;;
28245;SDS011;15510;52.512;13.300;2023-02-28T14:33:12;5.43;;;3.20;;
28245;SDS011;15510;52.512;13.300;2023-02-28T14:41:29;3.07;;;2.63;;
28245;SDS011;15510;52.512;13.300;2023-02-28T14:44:00;3.93;;;2.80;;
28245;SDS011;15510;52.512;13.300;2023-02-28T14:46:35;4.97;;;2.80;;
28245;SDS011;15510;52.512;13.300;2023-02-28T14:49:04;3.40;;;2.33;;
28245;SDS011;15510;52.512;13.300;2023-02-28T14:51:32;3.97;;;2.73;;
28245;SDS011;15510;52.512;13.300;2023-02-28T14:53:59;4.30;;;2.93;;
28245;SDS011;15510;52.512;13.300;2023-02-28T14:56:34;7.80;;;2.80;;
28245;SDS011;15510;52.512;13.300;2023-02-28T14:59:05;8.37;;;3.10;;
28245;SDS011;15510;52.512;13.300;2023-02-28T15:01:47;9.83;;;3.27;;
28245;SDS011;15510;52.512;13.300;2023-02-28T15:04:21;5.93;;;3.00;;
28245;SDS011;15510;52.512;13.300;2023-02-28T15:10:11;3.63;;;3.03;;
28245;SDS011;15510;52.512;13.300;2023-02-28T15:21:04;4.47;;;2.73;;
28245;SDS011;15510;52.512;13.300;2023-02-28T15:23:32;4.07;;;2.70;;
28245;SDS011;15510;52.512;13.300;2023-02-28T15:26:01;4.67;;;2.57;;
28245;SDS011;15510;52.512;13.300;2023-02-28T15:28:27;8.00;;;3.30;;
28245;SDS011;15510;52.512;13.300;2023-02-28T15:30:58;4.30;;;2.80;;
28245;SDS011;15510;52.512;13.300;2023-02-28T15:33:31;5.63;;;2.73;;
28245;SDS011;15510;52.512;13.300;2023-02-28T15:36:14;7.03;;;2.73;;
28245;SDS011;15510;52.512;13.300;2023-02-28T15:38:42;3.73;;;2.77;;
28245;SDS011;15510;52.512;13.300;2023-02-28T15:41:25;9.33;;;4.13;;
28245;SDS011;15510;52.512;13.300;2023-02-28T15:46:43;8.27;;;3.67;;
28245;SDS011;15510;52.512;13.300;2023-02-28T15:49:20;4.40;;;3.07;;
28245;SDS011;15510;52.512;13.300;2023-02-28T15:51:47;4.37;;;3.17;;
28245;SDS011;15510;52.512;13.300;2023-02-28T15:54:29;4.27;;;3.10;;
28245;SDS011;15510;52.512;13.300;2023-02-28T15:57:00;5.90;;;2.77;;
28245;SDS011;15510;52.512;13.300;2023-02-28T15:59:30;5.00;;;2.73;;
28245;SDS011;15510;52.512;13.300;2023-02-28T16:04:34;7.97;;;2.40;;
28245;SDS011;15510;52.512;13.300;2023-02-28T16:07:02;6.73;;;3.07;;
28245;SDS011;15510;52.512;13.300;2023-02-28T16:09:29;6.43;;;3.60;;
28245;SDS011;15510;52.512;13.300;2023-02-28T16:11:56;4.10;;;3.13;;
28245;SDS011;15510;52.512;13.300;2023-02-28T16:14:27;7.23;;;3.10;;
28245;SDS011;15510;52.512;13.300;2023-02-28T16:17:05;8.50;;;3.37;;
28245;SDS011;15510;52.512;13.300;2023-02-28T16:19:34;10.23;;;4.27;;
28245;SDS011;15510;52.512;13.300;2023-02-28T16:22:00;6.00;;;4.87;;
28245;SDS011;15510;52.512;13.300;2023-02-28T16:24:26;5.17;;;3.43;;
28245;SDS011;15510;52.512;13.300;2023-02-28T16:26:52;8.30;;;3.27;;
28245;SDS011;15510;52.512;13.300;2023-02-28T16:29:24;8.90;;;2.90;;
28245;SDS011;15510;52.512;13.300;2023-02-28T16:31:56;4.23;;;2.80;;
28245;SDS011;15510;52.512;13.300;2023-02-28T16:34:22;3.30;;;2.90;;
28245;SDS011;15510;52.512;13.300;2023-02-28T16:36:48;6.83;;;3.30;;
28245;SDS011;15510;52.512;13.300;2023-02-28T16:39:15;5.90;;;3.20;;
28245;SDS011;15510;52.512;13.300;2023-02-28T16:41:42;4.10;;;3.00;;
28245;SDS011;15510;52.512;13.300;2023-02-28T16:44:10;6.63;;;3.70;;
28245;SDS011;15510;52.512;13.300;2023-02-28T16:46:43;3.80;;;2.90;;
28245;SDS011;15510;52.512;13.300;2023-02-28T16:49:12;6.63;;;3.30;;
28245;SDS011;15510;52.512;13.300;2023-02-28T16:51:38;11.57;;;4.97;;
28245;SDS011;15510;52.512;13.300;2023-02-28T16:54:04;4.87;;;3.40;;
28245;SDS011;15510;52.512;13.300;2023-02-28T16:56:30;7.03;;;3.60;;
28245;SDS011;15510;52.512;13.300;2023-02-28T16:58:57;8.23;;;3.57;;
28245;SDS011;15510;52.512;13.300;2023-02-28T17:01:26;7.87;;;4.40;;
28245;SDS011;15510;52.512;13.300;2023-02-28T17:03:52;7.60;;;4.47;;
28245;SDS011;15510;52.512;13.300;2023-02-28T17:06:27;7.23;;;3.37;;
28245;SDS011;15510;52.512;13.300;2023-02-28T17:08:54;8.17;;;3.37;;
28245;SDS011;15510;52.512;13.300;2023-02-28T17:11:21;5.57;;;3.20;;
28245;SDS011;15510;52.512;13.300;2023-02-28T17:13:47;4.37;;;3.40;;
28245;SDS011;15510;52.512;13.300;2023-02-28T17:16:20;4.10;;;3.10;;
28245;SDS011;15510;52.512;13.300;2023-02-28T17:18:49;5.50;;;3.27;;
28245;SDS011;15510;52.512;13.300;2023-02-28T17:21:15;4.70;;;3.33;;
28245;SDS011;15510;52.512;13.300;2023-02-28T17:23:42;6.07;;;3.20;;
28245;SDS011;15510;52.512;13.300;2023-02-28T17:26:12;5.07;;;3.80;;
28245;SDS011;15510;52.512;13.300;2023-02-28T17:28:39;8.37;;;4.30;;
28245;SDS011;15510;52.512;13.300;2023-02-28T17:31:04;4.63;;;3.53;;
28245;SDS011;15510;52.512;13.300;2023-02-28T17:33:30;5.37;;;3.27;;
28245;SDS011;15510;52.512;13.300;2023-02-28T17:35:56;6.30;;;3.33;;
28245;SDS011;15510;52.512;13.300;2023-02-28T17:38:22;8.03;;;4.50;;
28245;SDS011;15510;52.512;13.300;2023-02-28T17:40:47;6.30;;;4.03;;
28245;SDS011;15510;52.512;13.300;2023-02-28T17:43:13;7.27;;;4.07;;
28245;SDS011;15510;52.512;13.300;2023-02-28T17:45:40;5.03;;;3.40;;
28245;SDS011;15510;52.512;13.300;2023-02-28T17:48:08;6.87;;;3.90;;
28245;SDS011;15510;52.512;13.300;2023-02-28T17:50:36;5.87;;;3.70;;
28245;SDS011;15510;52.512;13.300;2023-02-28T17:53:05;6.07;;;4.00;;
28245;SDS011;15510;52.512;13.300;2023-02-28T17:55:30;10.33;;;5.77;;